Home   Weather   Greece   Thessaloniki   Past weeks
Flag for Greece

Past Weather in Thessaloniki, Greece — Yesterday and Last 2 Weeks

Currently: 55 °F. Passing clouds. (Weather station: Thessaloniki Airport, Greece). See more current weather

Past Weather in Thessaloniki — Graph

°F

Thessaloniki Temperature Yesterday

Maximum temperature yesterday: 57 °F (at 2:50 pm)
Minimum temperature yesterday: 46 °F (at 12:20 am)
Average temperature yesterday: 51 °F

High & Low Weather Summary for the Past Weeks

 TemperatureHumidityPressure
High64 °F (Nov 20, 1:50 pm)100% (Nov 15, 9:20 pm)30.30 "Hg (Nov 15, 9:20 pm)
Low37 °F (Nov 13, 5:50 am)42% (Nov 19, 3:20 pm)29.68 "Hg (Nov 26, 3:50 pm)
Average54 °F76%30.13 "Hg
* Reported Nov 12 3:20 am — Nov 27 3:20 am, Thessaloniki. Weather by CustomWeather, © 2021

Note: Actual official high and low records may vary slightly from our data, if they occured in-between our weather recording intervals... More about our weather records

Thessaloniki Weather History for the Previous 24 Hours

Scroll right to see more
 ConditionsComfort  
Time TempWeatherWind HumidityBarometerVisibility
3:20 am
Sat, Nov 27
54 °FPassing clouds.5 mph82%29.71 "HgN/A
2:50 am54 °FPassing clouds.5 mph88%29.74 "HgN/A
2:20 am52 °FPassing clouds.7 mph94%29.74 "HgN/A
1:50 am50 °FPassing clouds.3 mph100%29.71 "HgN/A
1:20 am46 °FPassing clouds.3 mph100%29.74 "Hg5 mi
12:50 am46 °FFog.No wind100%29.74 "Hg1 mi
12:20 am48 °FFog.1 mph94%29.71 "Hg0 mi
11:50 pm
Fri, Nov 26
48 °FFog.No wind100%29.74 "Hg0 mi
11:20 pm50 °FFog.No wind94%29.71 "Hg0 mi
10:50 pm50 °FFog.2 mph100%29.71 "Hg2 mi
10:20 pm50 °FFog.2 mph100%29.71 "Hg2 mi
9:50 pm50 °FFog.3 mph100%29.71 "Hg3 mi
9:20 pm52 °FPartly cloudy.2 mph94%29.71 "Hg5 mi
8:50 pm52 °FPartly cloudy.No wind94%29.71 "HgN/A
8:20 pm52 °FPartly cloudy.No wind94%29.71 "HgN/A
7:50 pm52 °FPartly cloudy.5 mph94%29.71 "HgN/A
7:20 pm52 °FPassing clouds.8 mph94%29.71 "HgN/A
6:20 pm54 °FPassing clouds.10 mph88%29.68 "HgN/A
5:20 pm54 °FPassing clouds.7 mph94%29.68 "HgN/A
4:50 pm52 °FScattered clouds.7 mph94%29.68 "HgN/A
4:20 pm54 °FScattered clouds.13 mph88%29.68 "HgN/A
3:50 pm57 °FScattered clouds.12 mph82%29.68 "HgN/A
3:20 pm57 °FPartly sunny.13 mph82%29.71 "HgN/A
2:50 pm57 °FBroken clouds.10 mph82%29.71 "HgN/A
2:20 pm55 °FBroken clouds.14 mph88%29.71 "HgN/A
1:50 pm54 °FBroken clouds.12 mph88%29.74 "HgN/A
1:20 pm54 °FBroken clouds.14 mph88%29.74 "HgN/A
12:50 pm52 °FLight rain. Broken clouds.15 mph94%29.74 "Hg5 mi
12:20 pm54 °FLight rain. Partly sunny.17 mph82%29.77 "Hg5 mi
11:20 am54 °FPartly sunny.15 mph77%29.80 "HgN/A
10:50 am52 °FPartly sunny.13 mph82%29.83 "HgN/A
10:20 am52 °FPartly sunny.16 mph77%29.83 "HgN/A
9:50 am52 °FPartly sunny.12 mph77%29.86 "HgN/A
9:20 am50 °FPartly sunny.8 mph82%29.89 "HgN/A
8:50 am48 °FPartly sunny.12 mph87%29.89 "HgN/A
8:20 am50 °FRain. Partly sunny.10 mph82%29.95 "HgN/A
7:50 am50 °FPartly sunny.9 mph76%29.92 "HgN/A
7:20 am50 °FPassing clouds.13 mph71%29.92 "HgN/A
6:50 am50 °FPassing clouds.10 mph67%29.92 "HgN/A
6:20 am48 °FPassing clouds.12 mph71%29.95 "HgN/A
5:50 am48 °FPassing clouds.9 mph76%29.95 "HgN/A
5:20 am50 °FPassing clouds.7 mph71%29.98 "HgN/A
4:50 am50 °FPassing clouds.8 mph67%29.98 "HgN/A
4:20 am48 °FPassing clouds.8 mph76%29.98 "HgN/A
Weather by CustomWeather, © 2021

See weather overview